createdAt,value
2019-06-27T00:00:48.548Z,10.10
2019-06-27T00:03:17.861Z,8.97
2019-06-27T00:05:47.144Z,8.23
2019-06-27T00:08:16.446Z,9.50
2019-06-27T00:10:46.066Z,11.80
2019-06-27T00:13:15.361Z,9.70
2019-06-27T00:15:44.972Z,8.80
2019-06-27T00:18:14.277Z,13.53
2019-06-27T00:20:43.976Z,11.97
2019-06-27T00:23:13.276Z,9.37
2019-06-27T00:25:42.583Z,10.70
2019-06-27T00:28:12.124Z,10.10
2019-06-27T00:30:41.412Z,10.10
2019-06-27T00:33:10.717Z,9.80
2019-06-27T00:35:39.994Z,9.63
2019-06-27T00:38:09.520Z,10.73
2019-06-27T00:40:38.815Z,11.10
2019-06-27T00:43:08.119Z,15.50
2019-06-27T00:45:38.468Z,13.37
2019-06-27T00:48:08.043Z,17.87
2019-06-27T00:50:37.325Z,14.43
2019-06-27T00:53:06.627Z,14.63
2019-06-27T00:55:35.916Z,12.60
2019-06-27T00:58:05.284Z,18.77
2019-06-27T01:00:34.608Z,9.80
2019-06-27T01:03:03.955Z,11.93
2019-06-27T01:05:33.232Z,9.67
2019-06-27T01:08:02.529Z,18.03
2019-06-27T01:10:33.684Z,13.33
2019-06-27T01:13:02.997Z,11.37
2019-06-27T01:15:32.416Z,11.30
2019-06-27T01:18:01.712Z,11.77
2019-06-27T01:20:31.004Z,9.90
2019-06-27T01:23:00.300Z,8.80
2019-06-27T01:25:29.585Z,10.33
2019-06-27T01:27:58.880Z,11.70
2019-06-27T01:30:28.507Z,8.43
2019-06-27T01:32:57.837Z,7.97
2019-06-27T01:35:27.625Z,7.87
2019-06-27T01:37:56.917Z,8.00
2019-06-27T01:40:26.532Z,7.60
2019-06-27T01:42:56.133Z,11.57
2019-06-27T01:45:33.117Z,9.80
2019-06-27T01:48:03.852Z,9.17
2019-06-27T01:50:33.136Z,13.30
2019-06-27T01:53:02.449Z,9.60
2019-06-27T01:55:32.056Z,7.60
2019-06-27T01:58:01.595Z,10.17
2019-06-27T02:00:31.772Z,8.47
2019-06-27T02:03:01.207Z,12.00
2019-06-27T02:05:30.903Z,13.50
2019-06-27T02:08:00.265Z,8.60
2019-06-27T02:10:29.814Z,8.30
2019-06-27T02:12:59.116Z,9.60
2019-06-27T02:15:28.406Z,11.43
2019-06-27T02:17:57.699Z,12.90
2019-06-27T02:20:28.241Z,8.60
2019-06-27T02:22:57.848Z,9.40
2019-06-27T02:25:27.216Z,9.07
2019-06-27T02:28:03.866Z,9.73
2019-06-27T02:30:34.657Z,10.90
2019-06-27T02:33:03.952Z,8.33
2019-06-27T02:35:33.364Z,11.97
2019-06-27T02:38:04.061Z,10.67
2019-06-27T02:40:33.533Z,10.47
2019-06-27T02:43:02.825Z,8.50
2019-06-27T02:45:32.525Z,8.97
2019-06-27T02:48:01.882Z,18.53
2019-06-27T02:50:31.266Z,8.97
2019-06-27T02:53:00.780Z,9.33
2019-06-27T02:55:30.344Z,12.13
2019-06-27T02:57:59.940Z,14.93
2019-06-27T03:00:29.558Z,7.90
2019-06-27T03:02:59.066Z,9.73
2019-06-27T03:05:28.592Z,11.43
2019-06-27T03:07:57.891Z,11.33
2019-06-27T03:10:27.189Z,8.90
2019-06-27T03:12:56.728Z,13.70
2019-06-27T03:15:26.039Z,11.07
2019-06-27T03:17:55.686Z,17.67
2019-06-27T03:20:25.061Z,12.67
2019-06-27T03:22:54.353Z,15.27
2019-06-27T03:25:23.649Z,12.80
2019-06-27T03:27:52.945Z,12.33
2019-06-27T03:30:22.258Z,15.17
2019-06-27T03:32:51.543Z,10.87
2019-06-27T03:35:20.838Z,10.37
2019-06-27T03:37:50.143Z,14.43
2019-06-27T03:40:19.680Z,13.47
2019-06-27T03:42:49.046Z,14.60
2019-06-27T03:45:18.332Z,14.87
2019-06-27T03:47:47.639Z,16.43
2019-06-27T03:50:16.950Z,19.97
2019-06-27T03:52:46.339Z,16.07
2019-06-27T03:55:15.642Z,19.70
2019-06-27T03:57:45.661Z,17.10
2019-06-27T04:00:20.981Z,22.70
2019-06-27T04:02:50.287Z,20.23
2019-06-27T04:05:19.877Z,21.20
2019-06-27T04:07:49.486Z,20.13
2019-06-27T04:10:18.876Z,19.93
2019-06-27T04:12:48.213Z,20.13
2019-06-27T04:15:17.805Z,19.07
2019-06-27T04:17:47.418Z,16.33
2019-06-27T04:20:17.012Z,18.10
2019-06-27T04:22:46.625Z,18.50
2019-06-27T04:25:15.925Z,17.97
2019-06-27T04:27:45.310Z,19.97
2019-06-27T04:30:15.889Z,19.20
2019-06-27T04:32:45.460Z,19.93
2019-06-27T04:35:15.069Z,20.00
2019-06-27T04:37:44.377Z,22.47
2019-06-27T04:40:13.745Z,18.60
2019-06-27T04:42:43.048Z,19.70
2019-06-27T04:45:12.415Z,23.90
2019-06-27T04:47:41.984Z,25.93
2019-06-27T04:50:11.601Z,17.67
2019-06-27T04:52:41.216Z,18.00
2019-06-27T04:55:10.519Z,19.33
2019-06-27T04:57:40.112Z,21.80
2019-06-27T05:00:09.926Z,23.13
2019-06-27T05:02:39.233Z,22.43
2019-06-27T05:05:08.529Z,21.17
2019-06-27T05:07:37.964Z,21.20
2019-06-27T05:10:07.538Z,18.90
2019-06-27T05:12:36.869Z,23.37
2019-06-27T05:15:08.112Z,20.80
2019-06-27T05:17:37.673Z,23.53
2019-06-27T05:20:06.960Z,21.13
2019-06-27T05:22:36.436Z,17.30
2019-06-27T05:25:05.720Z,22.63
2019-06-27T05:27:35.039Z,21.07
2019-06-27T05:30:10.087Z,18.53
2019-06-27T05:32:36.357Z,18.63
2019-06-27T05:35:06.125Z,17.30
2019-06-27T05:37:35.699Z,20.30
2019-06-27T05:40:08.561Z,20.17
2019-06-27T05:42:38.187Z,16.50
2019-06-27T05:45:08.112Z,20.70
2019-06-27T05:47:38.616Z,19.50
2019-06-27T05:50:08.751Z,20.60
2019-06-27T05:52:38.053Z,17.57
2019-06-27T05:55:07.990Z,16.07
2019-06-27T05:57:37.566Z,21.47
2019-06-27T06:00:26.166Z,15.20
2019-06-27T06:02:39.725Z,18.63
2019-06-27T06:05:09.070Z,16.00
2019-06-27T06:07:38.371Z,17.67
2019-06-27T06:10:07.995Z,13.33
2019-06-27T06:12:37.516Z,14.33
2019-06-27T06:15:08.247Z,18.80
2019-06-27T06:17:37.771Z,15.57
2019-06-27T06:20:07.695Z,16.73
2019-06-27T06:22:36.978Z,13.47
2019-06-27T06:25:06.930Z,12.03
2019-06-27T06:27:36.299Z,15.10
2019-06-27T06:30:07.473Z,12.43
2019-06-27T06:32:36.827Z,13.50
2019-06-27T06:35:07.291Z,14.93
2019-06-27T06:37:36.899Z,14.17
2019-06-27T06:40:07.513Z,12.93
2019-06-27T06:42:37.036Z,9.60
2019-06-27T06:45:07.288Z,15.57
2019-06-27T06:47:36.581Z,11.70
2019-06-27T06:50:06.417Z,12.33
2019-06-27T06:52:35.776Z,10.27
2019-06-27T06:55:06.768Z,11.10
2019-06-27T06:57:36.153Z,11.90
2019-06-27T07:00:08.148Z,9.73
2019-06-27T07:02:38.082Z,11.60
2019-06-27T07:05:07.883Z,9.17
2019-06-27T07:07:37.202Z,10.70
2019-06-27T07:10:08.399Z,9.47
2019-06-27T07:12:37.699Z,10.87
2019-06-27T07:15:08.951Z,10.87
2019-06-27T07:17:38.275Z,6.83
2019-06-27T07:20:08.763Z,11.53
2019-06-27T07:22:38.052Z,8.03
2019-06-27T07:25:07.893Z,8.33
2019-06-27T07:27:37.731Z,7.37
2019-06-27T07:30:07.854Z,6.77
2019-06-27T07:32:37.203Z,8.00
2019-06-27T07:35:07.252Z,5.33
2019-06-27T07:37:37.483Z,4.70
2019-06-27T07:40:11.292Z,8.30
2019-06-27T07:42:40.553Z,11.73
2019-06-27T07:45:10.504Z,5.23
2019-06-27T07:47:40.091Z,6.00
2019-06-27T07:50:10.426Z,7.43
2019-06-27T07:52:40.667Z,6.47
2019-06-27T07:55:09.950Z,7.60
2019-06-27T07:57:39.552Z,6.60
2019-06-27T08:00:10.653Z,3.80
2019-06-27T08:02:40.181Z,6.90
2019-06-27T08:05:10.252Z,5.43
2019-06-27T08:07:40.038Z,10.70
2019-06-27T08:10:09.807Z,7.30
2019-06-27T08:12:42.314Z,5.13
2019-06-27T08:15:11.333Z,7.03
2019-06-27T08:17:41.018Z,7.20
2019-06-27T08:20:10.549Z,6.10
2019-06-27T08:22:39.804Z,8.87
2019-06-27T08:25:09.623Z,4.67
2019-06-27T08:27:39.250Z,4.00
2019-06-27T08:30:09.144Z,12.13
2019-06-27T08:32:38.697Z,6.10
2019-06-27T08:35:08.435Z,7.60
2019-06-27T08:37:39.028Z,4.73
2019-06-27T08:40:09.044Z,5.30
2019-06-27T08:42:38.337Z,4.33
2019-06-27T08:45:08.262Z,5.80
2019-06-27T08:47:37.793Z,6.37
2019-06-27T08:50:07.724Z,5.00
2019-06-27T08:52:37.276Z,3.53
2019-06-27T08:55:06.928Z,7.03
2019-06-27T08:57:37.511Z,4.07
2019-06-27T09:00:08.264Z,6.40
2019-06-27T09:02:37.535Z,5.23
2019-06-27T09:05:08.501Z,4.47
2019-06-27T09:07:37.805Z,6.03
2019-06-27T09:10:07.945Z,4.90
2019-06-27T09:12:37.259Z,5.23
2019-06-27T09:15:07.535Z,7.37
2019-06-27T09:17:36.818Z,2.87
2019-06-27T09:20:09.732Z,3.07
2019-06-27T09:22:39.162Z,10.60
2019-06-27T09:25:09.571Z,4.53
2019-06-27T09:27:39.156Z,4.90
2019-06-27T09:30:10.277Z,4.23
2019-06-27T09:32:39.823Z,4.63
2019-06-27T09:35:10.641Z,6.70
2019-06-27T09:37:39.990Z,5.03
2019-06-27T09:40:09.998Z,5.13
2019-06-27T09:42:39.572Z,7.63
2019-06-27T09:45:09.489Z,3.37
2019-06-27T09:47:39.160Z,4.87
2019-06-27T09:50:10.418Z,3.30
2019-06-27T09:52:39.779Z,4.23
2019-06-27T09:55:10.915Z,4.70
2019-06-27T09:57:40.237Z,4.33
2019-06-27T10:00:11.863Z,4.10
2019-06-27T10:02:42.903Z,3.23
2019-06-27T10:05:12.847Z,8.87
2019-06-27T10:07:42.366Z,4.83
2019-06-27T10:10:12.678Z,4.67
2019-06-27T10:12:43.377Z,3.50
2019-06-27T10:15:13.909Z,4.80
2019-06-27T10:17:43.423Z,6.43
2019-06-27T10:20:15.264Z,4.07
2019-06-27T10:22:44.560Z,4.80
2019-06-27T10:25:14.158Z,4.33
2019-06-27T10:27:43.430Z,5.73
2019-06-27T10:30:15.633Z,7.60
2019-06-27T10:32:58.429Z,3.30
2019-06-27T10:35:15.956Z,3.07
2019-06-27T10:37:45.224Z,4.00
2019-06-27T10:40:15.205Z,3.50
2019-06-27T10:42:44.473Z,5.83
2019-06-27T10:45:13.925Z,3.90
2019-06-27T10:47:43.532Z,4.13
2019-06-27T10:50:13.432Z,2.87
2019-06-27T10:52:42.737Z,4.33
2019-06-27T10:55:12.030Z,3.87
2019-06-27T10:57:41.638Z,4.80
2019-06-27T11:00:11.803Z,3.60
2019-06-27T11:02:41.079Z,4.00
2019-06-27T11:05:10.436Z,4.37
2019-06-27T11:07:40.978Z,4.60
2019-06-27T11:10:11.046Z,5.10
2019-06-27T11:12:40.632Z,3.97
2019-06-27T11:15:11.093Z,5.53
2019-06-27T11:17:40.663Z,4.70
2019-06-27T11:20:10.671Z,3.73
2019-06-27T11:22:39.938Z,4.17
2019-06-27T11:25:09.563Z,5.73
2019-06-27T11:27:38.836Z,3.83
2019-06-27T11:30:09.440Z,2.80
2019-06-27T11:32:39.020Z,2.60
2019-06-27T11:35:08.574Z,3.50
2019-06-27T11:37:37.904Z,2.87
2019-06-27T11:40:12.001Z,3.47
2019-06-27T11:42:39.976Z,5.53
2019-06-27T11:45:10.581Z,4.57
2019-06-27T11:47:40.142Z,3.37
2019-06-27T11:50:10.013Z,3.67
2019-06-27T11:52:39.443Z,3.07
2019-06-27T11:55:09.383Z,3.50
2019-06-27T11:57:38.996Z,4.37
2019-06-27T12:00:08.778Z,4.33
2019-06-27T12:02:38.429Z,3.40
2019-06-27T12:05:08.124Z,3.13
2019-06-27T12:07:37.759Z,7.03
2019-06-27T12:10:07.958Z,3.60
2019-06-27T12:12:37.586Z,4.03
2019-06-27T12:15:09.888Z,3.77
2019-06-27T12:17:39.211Z,4.17
2019-06-27T12:20:08.895Z,5.13
2019-06-27T12:22:38.177Z,4.30
2019-06-27T12:25:07.792Z,3.63
2019-06-27T12:27:37.054Z,4.50
2019-06-27T12:30:07.692Z,7.33
2019-06-27T12:32:51.200Z,3.40
2019-06-27T12:35:08.361Z,7.30
2019-06-27T12:37:39.916Z,7.60
2019-06-27T12:40:09.600Z,3.57
2019-06-27T12:42:38.906Z,3.53
2019-06-27T12:45:09.296Z,6.27
2019-06-27T12:47:38.847Z,5.10
2019-06-27T12:50:09.052Z,5.77
2019-06-27T12:52:38.569Z,5.83
2019-06-27T12:55:07.846Z,5.27
2019-06-27T12:57:37.375Z,4.53
2019-06-27T13:00:08.960Z,4.03
2019-06-27T13:02:38.742Z,4.10
2019-06-27T13:05:08.164Z,3.33
2019-06-27T13:07:37.669Z,8.03
2019-06-27T13:10:08.082Z,5.20
2019-06-27T13:12:37.370Z,5.63
2019-06-27T13:15:06.909Z,5.10
2019-06-27T13:17:36.264Z,4.63
2019-06-27T13:20:07.929Z,5.50
2019-06-27T13:22:38.534Z,2.83
2019-06-27T13:25:08.087Z,4.53
2019-06-27T13:27:37.358Z,7.80
2019-06-27T13:30:07.949Z,5.40
2019-06-27T13:32:37.552Z,3.70
2019-06-27T13:35:07.487Z,4.60
2019-06-27T13:37:36.779Z,4.43
2019-06-27T13:40:07.336Z,6.77
2019-06-27T13:42:38.358Z,5.20
2019-06-27T13:45:08.112Z,3.30
2019-06-27T13:47:37.381Z,3.90
2019-06-27T13:50:06.989Z,5.07
2019-06-27T13:52:36.295Z,2.80
2019-06-27T13:55:05.798Z,4.03
2019-06-27T13:57:35.125Z,2.93
2019-06-27T14:00:07.508Z,5.40
2019-06-27T14:02:37.246Z,4.83
2019-06-27T14:05:07.233Z,2.73
2019-06-27T14:07:36.528Z,3.80
2019-06-27T14:10:08.732Z,3.77
2019-06-27T14:12:38.096Z,4.60
2019-06-27T14:15:09.468Z,6.93
2019-06-27T14:17:38.741Z,3.47
2019-06-27T14:20:09.108Z,7.50
2019-06-27T14:22:38.385Z,5.87
2019-06-27T14:25:08.037Z,3.87
2019-06-27T14:27:37.322Z,3.00
2019-06-27T14:30:07.941Z,5.67
2019-06-27T14:32:37.535Z,2.83
2019-06-27T14:35:15.449Z,4.80
2019-06-27T14:37:38.133Z,2.50
2019-06-27T14:40:10.983Z,4.60
2019-06-27T14:42:40.570Z,7.10
2019-06-27T14:45:10.001Z,5.33
2019-06-27T14:47:39.616Z,4.67
2019-06-27T14:50:10.213Z,4.60
2019-06-27T14:52:40.525Z,4.43
2019-06-27T14:55:10.081Z,5.00
2019-06-27T14:57:39.646Z,6.17
2019-06-27T15:00:09.664Z,6.67
2019-06-27T15:02:39.274Z,4.77
2019-06-27T15:05:09.100Z,5.20
2019-06-27T15:07:38.701Z,5.10
2019-06-27T15:10:09.536Z,2.87
2019-06-27T15:12:52.540Z,8.73
2019-06-27T15:15:10.067Z,5.10
2019-06-27T15:17:39.712Z,6.63
2019-06-27T15:20:09.655Z,3.00
2019-06-27T15:22:38.944Z,4.40
2019-06-27T15:25:08.975Z,5.13
2019-06-27T15:27:39.213Z,4.13
2019-06-27T15:30:09.043Z,8.83
2019-06-27T15:32:38.509Z,9.60
2019-06-27T15:35:08.314Z,4.00
2019-06-27T15:37:37.582Z,5.83
2019-06-27T15:40:07.537Z,5.00
2019-06-27T15:42:37.943Z,3.20
2019-06-27T15:45:10.339Z,7.97
2019-06-27T15:47:39.605Z,5.00
2019-06-27T15:50:09.933Z,5.13
2019-06-27T15:52:39.220Z,6.73
2019-06-27T15:55:12.224Z,7.33
2019-06-27T15:57:41.153Z,10.10
2019-06-27T16:00:11.394Z,8.70
2019-06-27T16:02:40.662Z,4.67
2019-06-27T16:05:10.414Z,5.53
2019-06-27T16:07:39.829Z,5.03
2019-06-27T16:10:09.717Z,7.43
2019-06-27T16:12:39.380Z,7.67
2019-06-27T16:15:09.680Z,5.00
2019-06-27T16:17:39.907Z,6.83
2019-06-27T16:20:09.876Z,5.70
2019-06-27T16:22:39.138Z,7.30
2019-06-27T16:25:08.660Z,5.33
2019-06-27T16:27:38.009Z,5.30
2019-06-27T16:30:08.041Z,12.73
2019-06-27T16:32:37.313Z,4.57
2019-06-27T16:35:07.643Z,5.90
2019-06-27T16:37:36.903Z,4.87
2019-06-27T16:40:07.762Z,5.87
2019-06-27T16:42:37.205Z,8.23
2019-06-27T16:45:09.811Z,5.27
2019-06-27T16:47:39.086Z,6.57
2019-06-27T16:50:09.144Z,5.83
2019-06-27T16:52:38.436Z,6.50
2019-06-27T16:55:07.957Z,6.47
2019-06-27T16:57:37.246Z,5.53
2019-06-27T17:00:08.052Z,7.93
2019-06-27T17:02:37.317Z,5.83
2019-06-27T17:05:07.019Z,5.70
2019-06-27T17:07:36.347Z,7.60
2019-06-27T17:10:07.556Z,5.07
2019-06-27T17:12:37.062Z,7.63
2019-06-27T17:15:09.887Z,4.97
2019-06-27T17:17:39.399Z,5.20
2019-06-27T17:20:10.823Z,3.67
2019-06-27T17:22:40.469Z,3.40
2019-06-27T17:25:10.104Z,6.67
2019-06-27T17:27:39.439Z,5.17
2019-06-27T17:30:12.915Z,6.57
2019-06-27T17:32:42.200Z,6.77
2019-06-27T17:35:11.966Z,5.17
2019-06-27T17:37:42.216Z,5.33
2019-06-27T17:40:12.043Z,3.40
2019-06-27T17:42:41.335Z,3.63
2019-06-27T17:45:10.759Z,5.10
2019-06-27T17:47:40.130Z,3.67
2019-06-27T17:50:09.970Z,4.30
2019-06-27T17:52:39.260Z,5.00
2019-06-27T17:55:08.600Z,10.20
2019-06-27T17:57:37.895Z,4.40
2019-06-27T18:00:07.643Z,4.23
2019-06-27T18:02:37.087Z,3.67
2019-06-27T18:05:07.048Z,2.67
2019-06-27T18:07:36.608Z,5.00
2019-06-27T18:10:06.105Z,4.57
2019-06-27T18:12:35.385Z,4.13
2019-06-27T18:15:07.372Z,3.77
2019-06-27T18:17:36.679Z,4.40
2019-06-27T18:20:08.728Z,3.90
2019-06-27T18:22:38.351Z,6.17
2019-06-27T18:25:08.421Z,2.60
2019-06-27T18:27:37.942Z,5.90
2019-06-27T18:30:07.667Z,5.47
2019-06-27T18:32:36.947Z,3.07
2019-06-27T18:35:07.177Z,6.80
2019-06-27T18:37:36.464Z,5.10
2019-06-27T18:40:06.791Z,3.60
2019-06-27T18:42:36.091Z,4.97
2019-06-27T18:45:09.816Z,3.00
2019-06-27T18:47:39.103Z,3.87
2019-06-27T18:50:08.628Z,7.33
2019-06-27T18:52:37.947Z,3.93
2019-06-27T18:55:07.429Z,5.47
2019-06-27T18:57:37.777Z,5.43
2019-06-27T19:00:08.351Z,6.10
2019-06-27T19:02:38.032Z,2.60
2019-06-27T19:05:08.236Z,3.60
2019-06-27T19:07:45.506Z,4.33
2019-06-27T19:10:09.075Z,3.80
2019-06-27T19:12:39.341Z,7.30
2019-06-27T19:15:10.615Z,4.10
2019-06-27T19:17:39.926Z,4.70
2019-06-27T19:20:23.170Z,4.37
2019-06-27T19:23:00.391Z,5.20
2019-06-27T19:25:34.416Z,3.83
2019-06-27T19:28:04.053Z,7.23
2019-06-27T19:30:33.644Z,4.73
2019-06-27T19:33:02.951Z,5.00
2019-06-27T19:35:32.519Z,4.53
2019-06-27T19:38:03.058Z,9.63
2019-06-27T19:40:32.543Z,3.07
2019-06-27T19:43:02.165Z,4.20
2019-06-27T19:45:31.425Z,3.87
2019-06-27T19:48:00.735Z,5.07
2019-06-27T19:50:30.029Z,3.73
2019-06-27T19:52:59.306Z,5.87
2019-06-27T19:55:28.594Z,4.40
2019-06-27T19:57:57.877Z,5.10
2019-06-27T20:00:27.694Z,4.93
2019-06-27T20:02:56.972Z,10.57
2019-06-27T20:05:26.279Z,5.73
2019-06-27T20:07:55.542Z,9.30
2019-06-27T20:10:24.837Z,4.73
2019-06-27T20:12:54.119Z,6.27
2019-06-27T20:15:23.796Z,6.30
2019-06-27T20:17:53.080Z,4.77
2019-06-27T20:20:22.439Z,3.53
2019-06-27T20:22:51.705Z,5.70
2019-06-27T20:25:21.024Z,5.97
2019-06-27T20:27:50.304Z,3.20
2019-06-27T20:30:20.737Z,4.43
2019-06-27T20:32:50.245Z,6.97
2019-06-27T20:35:19.519Z,3.90
2019-06-27T20:37:49.070Z,4.10
2019-06-27T20:40:19.235Z,5.77
2019-06-27T20:42:48.592Z,4.53
2019-06-27T20:45:18.470Z,5.73
2019-06-27T20:47:49.360Z,4.33
2019-06-27T20:50:19.247Z,4.33
2019-06-27T20:52:48.662Z,2.83
2019-06-27T20:55:17.957Z,6.27
2019-06-27T20:57:47.235Z,3.47
2019-06-27T21:00:17.305Z,9.03
2019-06-27T21:02:46.817Z,4.63
2019-06-27T21:05:16.179Z,6.30
2019-06-27T21:07:45.697Z,4.00
2019-06-27T21:10:15.096Z,3.17
2019-06-27T21:12:45.359Z,5.17
2019-06-27T21:15:15.290Z,4.20
2019-06-27T21:17:44.740Z,9.90
2019-06-27T21:20:14.455Z,6.10
2019-06-27T21:22:45.989Z,3.07
2019-06-27T21:25:15.176Z,5.00
2019-06-27T21:27:44.441Z,5.20
2019-06-27T21:30:15.211Z,4.60
2019-06-27T21:32:48.059Z,6.73
2019-06-27T21:35:15.463Z,3.93
2019-06-27T21:37:45.056Z,4.23
2019-06-27T21:40:14.786Z,5.97
2019-06-27T21:42:44.289Z,9.23
2019-06-27T21:45:14.185Z,6.90
2019-06-27T21:47:43.440Z,4.13
2019-06-27T21:50:13.408Z,11.10
2019-06-27T21:52:42.673Z,4.37
2019-06-27T21:55:13.148Z,4.50
2019-06-27T21:57:42.663Z,5.93
2019-06-27T22:00:12.646Z,5.07
2019-06-27T22:02:43.547Z,8.70
2019-06-27T22:05:13.451Z,7.20
2019-06-27T22:07:42.732Z,3.70
2019-06-27T22:10:12.530Z,5.47
2019-06-27T22:12:41.816Z,3.90
2019-06-27T22:15:11.781Z,4.63
2019-06-27T22:17:41.054Z,7.80
2019-06-27T22:20:15.675Z,5.20
2019-06-27T22:22:41.931Z,5.17
2019-06-27T22:25:11.604Z,4.83
2019-06-27T22:27:41.168Z,6.63
2019-06-27T22:30:11.970Z,4.23
2019-06-27T22:32:41.561Z,5.40
2019-06-27T22:35:11.278Z,5.30
2019-06-27T22:37:58.349Z,3.73
2019-06-27T22:40:45.593Z,3.57
2019-06-27T22:43:33.041Z,6.70
2019-06-27T22:46:20.663Z,4.60
2019-06-27T22:48:49.264Z,5.03
2019-06-27T22:51:28.897Z,3.23
2019-06-27T22:53:59.827Z,3.17
2019-06-27T22:56:29.499Z,7.03
2019-06-27T22:58:59.791Z,4.60
2019-06-27T23:01:29.422Z,4.30
2019-06-27T23:03:58.971Z,6.03
2019-06-27T23:06:28.319Z,8.20
2019-06-27T23:08:57.594Z,3.50
2019-06-27T23:11:26.869Z,7.00
2019-06-27T23:13:56.157Z,3.83
2019-06-27T23:16:25.439Z,6.20
2019-06-27T23:18:54.756Z,3.20
2019-06-27T23:21:24.327Z,4.53
2019-06-27T23:23:53.909Z,5.77
2019-06-27T23:26:24.543Z,3.60
2019-06-27T23:28:54.603Z,4.33
2019-06-27T23:31:23.888Z,3.83
2019-06-27T23:33:53.169Z,5.43
2019-06-27T23:36:22.779Z,4.57
2019-06-27T23:38:52.049Z,3.50
2019-06-27T23:41:21.394Z,4.00
2019-06-27T23:43:50.700Z,4.57
2019-06-27T23:46:37.938Z,3.97
2019-06-27T23:49:07.451Z,5.47
2019-06-27T23:51:36.716Z,6.03
2019-06-27T23:54:06.350Z,5.23
2019-06-27T23:56:37.560Z,5.07
2019-06-27T23:59:06.895Z,6.33
